sensor_id;sensor_type;location;lat;lon;timestamp;P1;durP1;ratioP1;P2;durP2;ratioP2
50337;SDS011;46221;51.178;5.900;2022-11-15T00:01:57;6.15;;;3.70;;
50337;SDS011;46221;51.178;5.900;2022-11-15T00:04:23;7.05;;;3.95;;
50337;SDS011;46221;51.178;5.900;2022-11-15T00:06:49;5.93;;;3.83;;
50337;SDS011;46221;51.178;5.900;2022-11-15T00:09:15;5.78;;;4.20;;
50337;SDS011;46221;51.178;5.900;2022-11-15T00:11:42;6.50;;;4.15;;
50337;SDS011;46221;51.178;5.900;2022-11-15T00:14:08;6.05;;;4.15;;
50337;SDS011;46221;51.178;5.900;2022-11-15T00:16:34;5.60;;;4.10;;
50337;SDS011;46221;51.178;5.900;2022-11-15T00:19:00;6.82;;;4.00;;
50337;SDS011;46221;51.178;5.900;2022-11-15T00:21:27;5.72;;;4.18;;
50337;SDS011;46221;51.178;5.900;2022-11-15T00:23:53;6.57;;;4.40;;
50337;SDS011;46221;51.178;5.900;2022-11-15T00:26:19;6.10;;;3.80;;
50337;SDS011;46221;51.178;5.900;2022-11-15T00:28:45;5.47;;;3.90;;
50337;SDS011;46221;51.178;5.900;2022-11-15T00:31:12;6.63;;;4.15;;
50337;SDS011;46221;51.178;5.900;2022-11-15T00:33:39;6.68;;;4.68;;
50337;SDS011;46221;51.178;5.900;2022-11-15T00:36:06;6.60;;;4.30;;
50337;SDS011;46221;51.178;5.900;2022-11-15T00:38:35;5.88;;;4.20;;
50337;SDS011;46221;51.178;5.900;2022-11-15T00:41:02;7.03;;;4.63;;
50337;SDS011;46221;51.178;5.900;2022-11-15T00:43:35;5.13;;;3.92;;
50337;SDS011;46221;51.178;5.900;2022-11-15T00:46:01;5.50;;;4.07;;
50337;SDS011;46221;51.178;5.900;2022-11-15T00:48:28;6.68;;;4.50;;
50337;SDS011;46221;51.178;5.900;2022-11-15T00:50:55;6.30;;;4.43;;
50337;SDS011;46221;51.178;5.900;2022-11-15T00:53:21;7.35;;;4.00;;
50337;SDS011;46221;51.178;5.900;2022-11-15T00:55:47;6.93;;;4.47;;
50337;SDS011;46221;51.178;5.900;2022-11-15T00:58:13;6.10;;;3.70;;
50337;SDS011;46221;51.178;5.900;2022-11-15T01:00:40;4.60;;;3.75;;
50337;SDS011;46221;51.178;5.900;2022-11-15T01:03:06;5.25;;;4.28;;
50337;SDS011;46221;51.178;5.900;2022-11-15T01:05:32;5.82;;;3.22;;
50337;SDS011;46221;51.178;5.900;2022-11-15T01:07:58;5.43;;;3.60;;
50337;SDS011;46221;51.178;5.900;2022-11-15T01:10:25;5.00;;;3.50;;
50337;SDS011;46221;51.178;5.900;2022-11-15T01:12:51;7.05;;;3.85;;
50337;SDS011;46221;51.178;5.900;2022-11-15T01:15:18;5.55;;;3.58;;
50337;SDS011;46221;51.178;5.900;2022-11-15T01:17:44;5.03;;;3.50;;
50337;SDS011;46221;51.178;5.900;2022-11-15T01:20:10;6.88;;;3.53;;
50337;SDS011;46221;51.178;5.900;2022-11-15T01:22:37;5.72;;;3.30;;
50337;SDS011;46221;51.178;5.900;2022-11-15T01:25:03;5.65;;;3.70;;
50337;SDS011;46221;51.178;5.900;2022-11-15T01:27:29;5.28;;;3.50;;
50337;SDS011;46221;51.178;5.900;2022-11-15T01:29:56;6.15;;;4.35;;
50337;SDS011;46221;51.178;5.900;2022-11-15T01:32:22;4.72;;;3.30;;
50337;SDS011;46221;51.178;5.900;2022-11-15T01:34:48;5.53;;;3.33;;
50337;SDS011;46221;51.178;5.900;2022-11-15T01:37:14;5.53;;;3.30;;
50337;SDS011;46221;51.178;5.900;2022-11-15T01:39:41;5.25;;;3.33;;
50337;SDS011;46221;51.178;5.900;2022-11-15T01:42:11;4.60;;;2.83;;
50337;SDS011;46221;51.178;5.900;2022-11-15T01:44:42;4.93;;;3.10;;
50337;SDS011;46221;51.178;5.900;2022-11-15T01:47:19;5.50;;;3.42;;
50337;SDS011;46221;51.178;5.900;2022-11-15T01:49:50;4.82;;;3.47;;
50337;SDS011;46221;51.178;5.900;2022-11-15T01:52:19;5.60;;;3.40;;
50337;SDS011;46221;51.178;5.900;2022-11-15T01:54:46;6.70;;;4.05;;
50337;SDS011;46221;51.178;5.900;2022-11-15T01:57:13;5.28;;;3.20;;
50337;SDS011;46221;51.178;5.900;2022-11-15T01:59:40;6.88;;;3.40;;
50337;SDS011;46221;51.178;5.900;2022-11-15T02:02:07;5.40;;;3.45;;
50337;SDS011;46221;51.178;5.900;2022-11-15T02:04:35;6.43;;;3.20;;
50337;SDS011;46221;51.178;5.900;2022-11-15T02:07:02;5.47;;;3.08;;
50337;SDS011;46221;51.178;5.900;2022-11-15T02:09:29;5.85;;;3.30;;
50337;SDS011;46221;51.178;5.900;2022-11-15T02:11:56;4.18;;;3.35;;
50337;SDS011;46221;51.178;5.900;2022-11-15T02:14:22;6.00;;;3.38;;
50337;SDS011;46221;51.178;5.900;2022-11-15T02:19:40;5.25;;;3.70;;
50337;SDS011;46221;51.178;5.900;2022-11-15T02:27:51;6.15;;;3.80;;
50337;SDS011;46221;51.178;5.900;2022-11-15T02:30:21;7.45;;;3.67;;
50337;SDS011;46221;51.178;5.900;2022-11-15T02:32:50;4.47;;;3.25;;
50337;SDS011;46221;51.178;5.900;2022-11-15T02:37:50;6.85;;;3.50;;
50337;SDS011;46221;51.178;5.900;2022-11-15T02:43:04;4.88;;;3.00;;
50337;SDS011;46221;51.178;5.900;2022-11-15T02:45:53;4.75;;;3.10;;
50337;SDS011;46221;51.178;5.900;2022-11-15T02:48:22;5.15;;;3.10;;
50337;SDS011;46221;51.178;5.900;2022-11-15T02:50:50;3.90;;;2.67;;
50337;SDS011;46221;51.178;5.900;2022-11-15T02:53:17;5.60;;;3.20;;
50337;SDS011;46221;51.178;5.900;2022-11-15T02:55:44;6.32;;;3.40;;
50337;SDS011;46221;51.178;5.900;2022-11-15T03:00:47;4.70;;;3.22;;
50337;SDS011;46221;51.178;5.900;2022-11-15T03:06:07;4.22;;;2.80;;
50337;SDS011;46221;51.178;5.900;2022-11-15T03:11:35;4.15;;;2.85;;
50337;SDS011;46221;51.178;5.900;2022-11-15T03:14:09;4.53;;;3.08;;
50337;SDS011;46221;51.178;5.900;2022-11-15T03:16:38;5.93;;;3.60;;
50337;SDS011;46221;51.178;5.900;2022-11-15T03:21:44;5.13;;;3.03;;
50337;SDS011;46221;51.178;5.900;2022-11-15T03:24:11;5.00;;;2.90;;
50337;SDS011;46221;51.178;5.900;2022-11-15T03:26:38;5.00;;;2.95;;
50337;SDS011;46221;51.178;5.900;2022-11-15T03:29:11;5.28;;;3.20;;
50337;SDS011;46221;51.178;5.900;2022-11-15T03:31:39;5.60;;;3.25;;
50337;SDS011;46221;51.178;5.900;2022-11-15T03:34:34;4.53;;;2.70;;
50337;SDS011;46221;51.178;5.900;2022-11-15T03:37:03;5.80;;;2.95;;
50337;SDS011;46221;51.178;5.900;2022-11-15T03:39:29;5.38;;;3.00;;
50337;SDS011;46221;51.178;5.900;2022-11-15T03:44:52;3.53;;;2.45;;
50337;SDS011;46221;51.178;5.900;2022-11-15T03:47:36;3.78;;;2.60;;
50337;SDS011;46221;51.178;5.900;2022-11-15T03:50:07;4.65;;;3.10;;
50337;SDS011;46221;51.178;5.900;2022-11-15T03:52:34;4.35;;;2.65;;
50337;SDS011;46221;51.178;5.900;2022-11-15T03:55:02;4.45;;;2.60;;
50337;SDS011;46221;51.178;5.900;2022-11-15T03:57:28;5.00;;;3.55;;
50337;SDS011;46221;51.178;5.900;2022-11-15T03:59:55;4.55;;;2.70;;
50337;SDS011;46221;51.178;5.900;2022-11-15T04:02:21;5.38;;;2.72;;
50337;SDS011;46221;51.178;5.900;2022-11-15T04:04:47;4.65;;;2.85;;
50337;SDS011;46221;51.178;5.900;2022-11-15T04:07:13;5.30;;;2.92;;
50337;SDS011;46221;51.178;5.900;2022-11-15T04:09:40;4.35;;;2.75;;
50337;SDS011;46221;51.178;5.900;2022-11-15T04:12:25;4.50;;;2.53;;
50337;SDS011;46221;51.178;5.900;2022-11-15T04:15:02;4.68;;;2.38;;
50337;SDS011;46221;51.178;5.900;2022-11-15T04:17:35;4.75;;;2.50;;
50337;SDS011;46221;51.178;5.900;2022-11-15T04:20:03;4.07;;;2.40;;
50337;SDS011;46221;51.178;5.900;2022-11-15T04:22:48;4.15;;;2.42;;
50337;SDS011;46221;51.178;5.900;2022-11-15T04:25:33;3.70;;;2.40;;
50337;SDS011;46221;51.178;5.900;2022-11-15T04:27:59;3.60;;;2.22;;
50337;SDS011;46221;51.178;5.900;2022-11-15T04:30:25;3.45;;;2.40;;
50337;SDS011;46221;51.178;5.900;2022-11-15T04:32:51;3.85;;;2.30;;
50337;SDS011;46221;51.178;5.900;2022-11-15T04:35:18;3.85;;;2.45;;
50337;SDS011;46221;51.178;5.900;2022-11-15T04:37:44;3.40;;;2.20;;
50337;SDS011;46221;51.178;5.900;2022-11-15T04:40:14;4.60;;;2.60;;
50337;SDS011;46221;51.178;5.900;2022-11-15T04:42:41;4.13;;;2.28;;
50337;SDS011;46221;51.178;5.900;2022-11-15T04:45:11;3.28;;;2.20;;
50337;SDS011;46221;51.178;5.900;2022-11-15T04:47:37;3.13;;;2.35;;
50337;SDS011;46221;51.178;5.900;2022-11-15T04:50:04;3.20;;;2.10;;
50337;SDS011;46221;51.178;5.900;2022-11-15T04:52:30;3.55;;;2.05;;
50337;SDS011;46221;51.178;5.900;2022-11-15T04:54:56;3.70;;;2.20;;
50337;SDS011;46221;51.178;5.900;2022-11-15T04:57:23;3.92;;;2.40;;
50337;SDS011;46221;51.178;5.900;2022-11-15T04:59:49;3.42;;;1.98;;
50337;SDS011;46221;51.178;5.900;2022-11-15T05:02:15;3.30;;;1.95;;
50337;SDS011;46221;51.178;5.900;2022-11-15T05:04:41;3.40;;;2.05;;
50337;SDS011;46221;51.178;5.900;2022-11-15T05:07:08;3.75;;;2.17;;
50337;SDS011;46221;51.178;5.900;2022-11-15T05:09:34;3.95;;;2.10;;
50337;SDS011;46221;51.178;5.900;2022-11-15T05:12:00;4.07;;;2.00;;
50337;SDS011;46221;51.178;5.900;2022-11-15T05:14:27;3.00;;;2.10;;
50337;SDS011;46221;51.178;5.900;2022-11-15T05:16:53;2.85;;;1.77;;
50337;SDS011;46221;51.178;5.900;2022-11-15T05:19:19;3.70;;;2.35;;
50337;SDS011;46221;51.178;5.900;2022-11-15T05:21:46;3.97;;;2.22;;
50337;SDS011;46221;51.178;5.900;2022-11-15T05:24:12;3.65;;;2.38;;
50337;SDS011;46221;51.178;5.900;2022-11-15T05:26:39;3.80;;;2.08;;
50337;SDS011;46221;51.178;5.900;2022-11-15T05:29:05;3.42;;;2.22;;
50337;SDS011;46221;51.178;5.900;2022-11-15T05:31:31;3.25;;;2.33;;
50337;SDS011;46221;51.178;5.900;2022-11-15T05:33:58;3.40;;;2.10;;
50337;SDS011;46221;51.178;5.900;2022-11-15T05:39:01;3.40;;;1.95;;
50337;SDS011;46221;51.178;5.900;2022-11-15T05:41:30;4.78;;;2.00;;
50337;SDS011;46221;51.178;5.900;2022-11-15T05:43:57;4.18;;;2.30;;
50337;SDS011;46221;51.178;5.900;2022-11-15T05:46:24;3.80;;;2.20;;
50337;SDS011;46221;51.178;5.900;2022-11-15T05:48:50;3.80;;;1.92;;
50337;SDS011;46221;51.178;5.900;2022-11-15T05:51:18;3.83;;;1.95;;
50337;SDS011;46221;51.178;5.900;2022-11-15T05:53:45;2.75;;;1.83;;
50337;SDS011;46221;51.178;5.900;2022-11-15T05:56:11;2.85;;;1.92;;
50337;SDS011;46221;51.178;5.900;2022-11-15T05:58:38;2.83;;;1.77;;
50337;SDS011;46221;51.178;5.900;2022-11-15T06:01:04;2.90;;;1.90;;
50337;SDS011;46221;51.178;5.900;2022-11-15T06:03:31;3.85;;;1.85;;
50337;SDS011;46221;51.178;5.900;2022-11-15T06:05:57;2.47;;;1.65;;
50337;SDS011;46221;51.178;5.900;2022-11-15T06:08:24;3.38;;;1.65;;
50337;SDS011;46221;51.178;5.900;2022-11-15T06:10:50;3.40;;;1.55;;
50337;SDS011;46221;51.178;5.900;2022-11-15T06:13:16;3.50;;;1.60;;
50337;SDS011;46221;51.178;5.900;2022-11-15T06:15:42;1.90;;;1.45;;
50337;SDS011;46221;51.178;5.900;2022-11-15T06:18:09;3.00;;;1.52;;
50337;SDS011;46221;51.178;5.900;2022-11-15T06:20:35;2.55;;;1.77;;
50337;SDS011;46221;51.178;5.900;2022-11-15T06:23:02;3.70;;;1.55;;
50337;SDS011;46221;51.178;5.900;2022-11-15T06:25:29;4.70;;;2.20;;
50337;SDS011;46221;51.178;5.900;2022-11-15T06:27:56;2.72;;;1.55;;
50337;SDS011;46221;51.178;5.900;2022-11-15T06:30:24;2.15;;;1.30;;
50337;SDS011;46221;51.178;5.900;2022-11-15T06:32:51;3.45;;;1.52;;
50337;SDS011;46221;51.178;5.900;2022-11-15T06:35:17;4.60;;;1.50;;
50337;SDS011;46221;51.178;5.900;2022-11-15T06:37:43;5.60;;;1.65;;
50337;SDS011;46221;51.178;5.900;2022-11-15T06:40:10;3.85;;;1.55;;
50337;SDS011;46221;51.178;5.900;2022-11-15T06:42:36;3.05;;;1.40;;
50337;SDS011;46221;51.178;5.900;2022-11-15T06:45:02;4.32;;;1.67;;
50337;SDS011;46221;51.178;5.900;2022-11-15T06:47:29;3.92;;;1.50;;
50337;SDS011;46221;51.178;5.900;2022-11-15T06:49:55;3.30;;;2.03;;
50337;SDS011;46221;51.178;5.900;2022-11-15T06:52:21;2.47;;;1.52;;
50337;SDS011;46221;51.178;5.900;2022-11-15T06:54:48;2.17;;;1.40;;
50337;SDS011;46221;51.178;5.900;2022-11-15T06:57:14;3.78;;;1.40;;
50337;SDS011;46221;51.178;5.900;2022-11-15T06:59:40;3.63;;;1.35;;
50337;SDS011;46221;51.178;5.900;2022-11-15T07:02:11;3.58;;;1.40;;
50337;SDS011;46221;51.178;5.900;2022-11-15T07:04:38;3.35;;;1.40;;
50337;SDS011;46221;51.178;5.900;2022-11-15T07:07:04;3.65;;;1.40;;
50337;SDS011;46221;51.178;5.900;2022-11-15T07:09:30;3.40;;;1.38;;
50337;SDS011;46221;51.178;5.900;2022-11-15T07:11:57;4.35;;;1.42;;
50337;SDS011;46221;51.178;5.900;2022-11-15T07:14:28;1.90;;;1.20;;
50337;SDS011;46221;51.178;5.900;2022-11-15T07:16:54;2.17;;;1.27;;
50337;SDS011;46221;51.178;5.900;2022-11-15T07:19:20;4.38;;;1.58;;
50337;SDS011;46221;51.178;5.900;2022-11-15T07:21:47;3.47;;;1.23;;
50337;SDS011;46221;51.178;5.900;2022-11-15T07:24:13;2.92;;;1.25;;
50337;SDS011;46221;51.178;5.900;2022-11-15T07:26:39;5.05;;;1.80;;
50337;SDS011;46221;51.178;5.900;2022-11-15T07:29:06;3.83;;;1.30;;
50337;SDS011;46221;51.178;5.900;2022-11-15T07:31:32;2.67;;;1.20;;
50337;SDS011;46221;51.178;5.900;2022-11-15T07:33:58;1.88;;;1.10;;
50337;SDS011;46221;51.178;5.900;2022-11-15T07:36:24;3.17;;;1.27;;
50337;SDS011;46221;51.178;5.900;2022-11-15T07:38:51;3.05;;;1.40;;
50337;SDS011;46221;51.178;5.900;2022-11-15T07:41:17;2.08;;;1.10;;
50337;SDS011;46221;51.178;5.900;2022-11-15T07:43:43;2.40;;;1.17;;
50337;SDS011;46221;51.178;5.900;2022-11-15T07:46:10;2.38;;;1.23;;
50337;SDS011;46221;51.178;5.900;2022-11-15T07:48:36;2.10;;;1.10;;
50337;SDS011;46221;51.178;5.900;2022-11-15T07:51:11;2.75;;;1.30;;
50337;SDS011;46221;51.178;5.900;2022-11-15T07:53:39;2.28;;;1.15;;
50337;SDS011;46221;51.178;5.900;2022-11-15T07:56:06;3.22;;;1.45;;
50337;SDS011;46221;51.178;5.900;2022-11-15T07:58:33;3.83;;;1.38;;
50337;SDS011;46221;51.178;5.900;2022-11-15T08:01:02;3.55;;;1.15;;
50337;SDS011;46221;51.178;5.900;2022-11-15T08:03:29;3.42;;;1.23;;
50337;SDS011;46221;51.178;5.900;2022-11-15T08:05:55;3.30;;;1.58;;
50337;SDS011;46221;51.178;5.900;2022-11-15T08:08:22;3.00;;;1.23;;
50337;SDS011;46221;51.178;5.900;2022-11-15T08:10:48;3.70;;;1.33;;
50337;SDS011;46221;51.178;5.900;2022-11-15T08:13:14;3.05;;;1.10;;
50337;SDS011;46221;51.178;5.900;2022-11-15T08:15:41;3.60;;;1.38;;
50337;SDS011;46221;51.178;5.900;2022-11-15T08:18:12;3.45;;;1.30;;
50337;SDS011;46221;51.178;5.900;2022-11-15T08:20:39;2.65;;;1.38;;
50337;SDS011;46221;51.178;5.900;2022-11-15T08:23:06;2.65;;;1.08;;
50337;SDS011;46221;51.178;5.900;2022-11-15T08:25:32;3.42;;;1.20;;
50337;SDS011;46221;51.178;5.900;2022-11-15T08:28:00;5.47;;;1.27;;
50337;SDS011;46221;51.178;5.900;2022-11-15T08:30:26;2.65;;;1.40;;
50337;SDS011;46221;51.178;5.900;2022-11-15T08:32:53;2.88;;;1.02;;
50337;SDS011;46221;51.178;5.900;2022-11-15T08:35:20;2.80;;;1.10;;
50337;SDS011;46221;51.178;5.900;2022-11-15T08:37:53;5.15;;;1.67;;
50337;SDS011;46221;51.178;5.900;2022-11-15T08:40:22;3.05;;;1.02;;
50337;SDS011;46221;51.178;5.900;2022-11-15T08:42:49;2.53;;;1.40;;
50337;SDS011;46221;51.178;5.900;2022-11-15T08:45:15;2.80;;;1.00;;
50337;SDS011;46221;51.178;5.900;2022-11-15T08:47:42;2.95;;;1.20;;
50337;SDS011;46221;51.178;5.900;2022-11-15T08:50:08;2.38;;;1.10;;
50337;SDS011;46221;51.178;5.900;2022-11-15T08:52:35;2.15;;;0.90;;
50337;SDS011;46221;51.178;5.900;2022-11-15T08:55:01;2.15;;;0.98;;
50337;SDS011;46221;51.178;5.900;2022-11-15T08:57:30;2.05;;;0.90;;
50337;SDS011;46221;51.178;5.900;2022-11-15T08:59:57;2.88;;;1.13;;
50337;SDS011;46221;51.178;5.900;2022-11-15T09:02:23;2.08;;;0.80;;
50337;SDS011;46221;51.178;5.900;2022-11-15T09:04:50;5.30;;;1.45;;
50337;SDS011;46221;51.178;5.900;2022-11-15T09:07:16;3.30;;;1.27;;
50337;SDS011;46221;51.178;5.900;2022-11-15T09:09:42;2.80;;;1.10;;
50337;SDS011;46221;51.178;5.900;2022-11-15T09:12:08;2.72;;;0.90;;
50337;SDS011;46221;51.178;5.900;2022-11-15T09:14:35;2.35;;;0.95;;
50337;SDS011;46221;51.178;5.900;2022-11-15T09:17:01;2.40;;;0.90;;
50337;SDS011;46221;51.178;5.900;2022-11-15T09:19:27;2.88;;;1.08;;
50337;SDS011;46221;51.178;5.900;2022-11-15T09:21:54;2.80;;;1.00;;
50337;SDS011;46221;51.178;5.900;2022-11-15T09:24:20;1.30;;;0.70;;
50337;SDS011;46221;51.178;5.900;2022-11-15T09:26:47;3.30;;;1.20;;
50337;SDS011;46221;51.178;5.900;2022-11-15T09:29:15;2.50;;;0.85;;
50337;SDS011;46221;51.178;5.900;2022-11-15T09:31:41;2.10;;;0.88;;
50337;SDS011;46221;51.178;5.900;2022-11-15T09:34:08;3.38;;;0.90;;
50337;SDS011;46221;51.178;5.900;2022-11-15T09:36:34;1.50;;;0.80;;
50337;SDS011;46221;51.178;5.900;2022-11-15T09:39:03;2.58;;;0.80;;
50337;SDS011;46221;51.178;5.900;2022-11-15T09:49:23;1.67;;;0.82;;
50337;SDS011;46221;51.178;5.900;2022-11-15T09:51:50;2.25;;;0.80;;
50337;SDS011;46221;51.178;5.900;2022-11-15T09:54:34;1.75;;;0.77;;
50337;SDS011;46221;51.178;5.900;2022-11-15T10:02:36;2.78;;;1.10;;
50337;SDS011;46221;51.178;5.900;2022-11-15T10:05:07;1.98;;;1.05;;
50337;SDS011;46221;51.178;5.900;2022-11-15T10:10:24;2.97;;;0.80;;
50337;SDS011;46221;51.178;5.900;2022-11-15T10:12:51;2.67;;;1.00;;
50337;SDS011;46221;51.178;5.900;2022-11-15T10:15:18;0.90;;;0.50;;
50337;SDS011;46221;51.178;5.900;2022-11-15T10:20:42;3.08;;;0.98;;
50337;SDS011;46221;51.178;5.900;2022-11-15T10:23:11;3.33;;;0.90;;
50337;SDS011;46221;51.178;5.900;2022-11-15T10:25:39;1.75;;;0.98;;
50337;SDS011;46221;51.178;5.900;2022-11-15T10:28:16;3.33;;;0.88;;
50337;SDS011;46221;51.178;5.900;2022-11-15T10:33:13;2.65;;;0.80;;
50337;SDS011;46221;51.178;5.900;2022-11-15T10:35:43;1.48;;;0.65;;
50337;SDS011;46221;51.178;5.900;2022-11-15T10:38:10;2.53;;;0.80;;
50337;SDS011;46221;51.178;5.900;2022-11-15T10:40:37;2.58;;;0.82;;
50337;SDS011;46221;51.178;5.900;2022-11-15T10:45:37;2.47;;;0.80;;
50337;SDS011;46221;51.178;5.900;2022-11-15T10:50:43;1.58;;;0.70;;
50337;SDS011;46221;51.178;5.900;2022-11-15T10:56:06;1.88;;;0.63;;
50337;SDS011;46221;51.178;5.900;2022-11-15T10:58:44;2.63;;;0.60;;
50337;SDS011;46221;51.178;5.900;2022-11-15T11:01:13;2.20;;;0.80;;
50337;SDS011;46221;51.178;5.900;2022-11-15T11:03:40;0.95;;;0.52;;
50337;SDS011;46221;51.178;5.900;2022-11-15T11:06:14;2.65;;;0.80;;
50337;SDS011;46221;51.178;5.900;2022-11-15T11:08:57;2.15;;;0.80;;
50337;SDS011;46221;51.178;5.900;2022-11-15T11:11:24;2.35;;;0.75;;
50337;SDS011;46221;51.178;5.900;2022-11-15T11:13:51;2.30;;;0.70;;
50337;SDS011;46221;51.178;5.900;2022-11-15T11:16:34;1.73;;;0.77;;
50337;SDS011;46221;51.178;5.900;2022-11-15T11:19:08;1.38;;;0.50;;
50337;SDS011;46221;51.178;5.900;2022-11-15T11:29:20;2.25;;;0.70;;
50337;SDS011;46221;51.178;5.900;2022-11-15T11:31:52;1.48;;;0.45;;
50337;SDS011;46221;51.178;5.900;2022-11-15T11:34:43;2.30;;;0.70;;
50337;SDS011;46221;51.178;5.900;2022-11-15T11:39:58;1.63;;;0.60;;
50337;SDS011;46221;51.178;5.900;2022-11-15T11:47:47;2.33;;;0.82;;
50337;SDS011;46221;51.178;5.900;2022-11-15T11:50:18;2.13;;;0.80;;
50337;SDS011;46221;51.178;5.900;2022-11-15T11:52:57;1.95;;;0.80;;
50337;SDS011;46221;51.178;5.900;2022-11-15T11:58:34;3.22;;;1.00;;
50337;SDS011;46221;51.178;5.900;2022-11-15T12:03:39;2.88;;;0.98;;
50337;SDS011;46221;51.178;5.900;2022-11-15T12:06:20;2.83;;;0.90;;
50337;SDS011;46221;51.178;5.900;2022-11-15T12:08:56;2.70;;;1.13;;
50337;SDS011;46221;51.178;5.900;2022-11-15T12:11:29;3.67;;;1.00;;
50337;SDS011;46221;51.178;5.900;2022-11-15T12:13:58;3.53;;;1.00;;
50337;SDS011;46221;51.178;5.900;2022-11-15T12:16:31;2.72;;;0.80;;
50337;SDS011;46221;51.178;5.900;2022-11-15T12:19:02;2.17;;;0.90;;
50337;SDS011;46221;51.178;5.900;2022-11-15T12:21:34;3.20;;;1.08;;
50337;SDS011;46221;51.178;5.900;2022-11-15T12:24:02;2.70;;;0.88;;
50337;SDS011;46221;51.178;5.900;2022-11-15T12:26:35;2.35;;;1.00;;
50337;SDS011;46221;51.178;5.900;2022-11-15T12:29:04;2.67;;;1.05;;
50337;SDS011;46221;51.178;5.900;2022-11-15T12:34:01;2.50;;;1.00;;
50337;SDS011;46221;51.178;5.900;2022-11-15T12:36:37;2.95;;;0.90;;
50337;SDS011;46221;51.178;5.900;2022-11-15T12:39:07;2.75;;;1.00;;
50337;SDS011;46221;51.178;5.900;2022-11-15T12:41:36;2.42;;;0.80;;
50337;SDS011;46221;51.178;5.900;2022-11-15T12:44:03;2.83;;;0.90;;
50337;SDS011;46221;51.178;5.900;2022-11-15T12:49:00;2.35;;;0.93;;
50337;SDS011;46221;51.178;5.900;2022-11-15T13:02:20;2.75;;;0.60;;
50337;SDS011;46221;51.178;5.900;2022-11-15T13:04:47;3.10;;;0.93;;
50337;SDS011;46221;51.178;5.900;2022-11-15T13:10:00;3.10;;;0.80;;
50337;SDS011;46221;51.178;5.900;2022-11-15T13:17:26;3.20;;;0.88;;
50337;SDS011;46221;51.178;5.900;2022-11-15T13:30:52;2.83;;;0.90;;
50337;SDS011;46221;51.178;5.900;2022-11-15T13:33:20;6.07;;;1.20;;
50337;SDS011;46221;51.178;5.900;2022-11-15T13:35:51;3.30;;;0.80;;
50337;SDS011;46221;51.178;5.900;2022-11-15T13:38:22;1.73;;;0.80;;
50337;SDS011;46221;51.178;5.900;2022-11-15T13:40:52;2.45;;;0.82;;
50337;SDS011;46221;51.178;5.900;2022-11-15T13:48:30;1.95;;;0.82;;
50337;SDS011;46221;51.178;5.900;2022-11-15T13:50:57;3.38;;;1.25;;
50337;SDS011;46221;51.178;5.900;2022-11-15T13:53:23;1.65;;;0.70;;
50337;SDS011;46221;51.178;5.900;2022-11-15T13:55:50;3.88;;;1.20;;
50337;SDS011;46221;51.178;5.900;2022-11-15T13:58:17;2.70;;;1.48;;
50337;SDS011;46221;51.178;5.900;2022-11-15T14:00:49;3.60;;;1.17;;
50337;SDS011;46221;51.178;5.900;2022-11-15T14:08:28;3.00;;;1.20;;
50337;SDS011;46221;51.178;5.900;2022-11-15T14:11:15;2.90;;;0.93;;
50337;SDS011;46221;51.178;5.900;2022-11-15T14:13:58;2.75;;;0.90;;
50337;SDS011;46221;51.178;5.900;2022-11-15T14:16:33;2.97;;;0.93;;
50337;SDS011;46221;51.178;5.900;2022-11-15T14:18:59;2.40;;;0.82;;
50337;SDS011;46221;51.178;5.900;2022-11-15T14:21:26;2.33;;;0.98;;
50337;SDS011;46221;51.178;5.900;2022-11-15T14:23:52;2.78;;;0.80;;
50337;SDS011;46221;51.178;5.900;2022-11-15T14:26:31;2.00;;;0.82;;
50337;SDS011;46221;51.178;5.900;2022-11-15T14:31:43;3.33;;;0.98;;
50337;SDS011;46221;51.178;5.900;2022-11-15T14:34:12;2.03;;;0.90;;
50337;SDS011;46221;51.178;5.900;2022-11-15T14:36:39;1.52;;;0.70;;
50337;SDS011;46221;51.178;5.900;2022-11-15T14:39:05;3.38;;;0.90;;
50337;SDS011;46221;51.178;5.900;2022-11-15T14:41:34;3.22;;;0.90;;
50337;SDS011;46221;51.178;5.900;2022-11-15T14:44:04;4.63;;;1.17;;
50337;SDS011;46221;51.178;5.900;2022-11-15T14:46:31;2.30;;;0.80;;
50337;SDS011;46221;51.178;5.900;2022-11-15T14:48:58;3.08;;;0.93;;
50337;SDS011;46221;51.178;5.900;2022-11-15T14:51:24;2.75;;;0.90;;
50337;SDS011;46221;51.178;5.900;2022-11-15T14:53:52;2.30;;;0.80;;
50337;SDS011;46221;51.178;5.900;2022-11-15T14:56:18;3.25;;;1.20;;
50337;SDS011;46221;51.178;5.900;2022-11-15T14:58:44;2.85;;;1.20;;
50337;SDS011;46221;51.178;5.900;2022-11-15T15:01:14;2.13;;;0.90;;
50337;SDS011;46221;51.178;5.900;2022-11-15T15:03:42;2.55;;;0.90;;
50337;SDS011;46221;51.178;5.900;2022-11-15T15:06:10;2.22;;;1.08;;
50337;SDS011;46221;51.178;5.900;2022-11-15T15:08:43;2.17;;;0.80;;
50337;SDS011;46221;51.178;5.900;2022-11-15T15:11:14;3.17;;;1.10;;
50337;SDS011;46221;51.178;5.900;2022-11-15T15:13:41;2.88;;;1.05;;
50337;SDS011;46221;51.178;5.900;2022-11-15T15:16:07;2.03;;;0.80;;
50337;SDS011;46221;51.178;5.900;2022-11-15T15:18:33;2.42;;;1.30;;
50337;SDS011;46221;51.178;5.900;2022-11-15T15:21:00;1.27;;;0.70;;
50337;SDS011;46221;51.178;5.900;2022-11-15T15:23:29;2.65;;;0.80;;
50337;SDS011;46221;51.178;5.900;2022-11-15T15:25:57;4.60;;;1.55;;
50337;SDS011;46221;51.178;5.900;2022-11-15T15:28:23;2.30;;;0.63;;
50337;SDS011;46221;51.178;5.900;2022-11-15T15:30:55;1.65;;;0.90;;
50337;SDS011;46221;51.178;5.900;2022-11-15T15:33:21;2.95;;;0.85;;
50337;SDS011;46221;51.178;5.900;2022-11-15T15:35:47;4.15;;;1.20;;
50337;SDS011;46221;51.178;5.900;2022-11-15T15:38:13;3.67;;;1.13;;
50337;SDS011;46221;51.178;5.900;2022-11-15T15:40:41;3.28;;;0.85;;
50337;SDS011;46221;51.178;5.900;2022-11-15T15:43:07;1.77;;;0.90;;
50337;SDS011;46221;51.178;5.900;2022-11-15T15:45:38;3.95;;;1.45;;
50337;SDS011;46221;51.178;5.900;2022-11-15T15:48:05;3.28;;;1.08;;
50337;SDS011;46221;51.178;5.900;2022-11-15T15:50:32;4.40;;;1.05;;
50337;SDS011;46221;51.178;5.900;2022-11-15T15:52:59;2.22;;;0.90;;
50337;SDS011;46221;51.178;5.900;2022-11-15T15:55:26;2.28;;;1.00;;
50337;SDS011;46221;51.178;5.900;2022-11-15T15:57:53;4.40;;;1.10;;
50337;SDS011;46221;51.178;5.900;2022-11-15T16:00:19;3.05;;;1.00;;
50337;SDS011;46221;51.178;5.900;2022-11-15T16:02:47;1.30;;;0.68;;
50337;SDS011;46221;51.178;5.900;2022-11-15T16:05:13;3.15;;;1.10;;
50337;SDS011;46221;51.178;5.900;2022-11-15T16:07:39;2.58;;;1.08;;
50337;SDS011;46221;51.178;5.900;2022-11-15T16:10:17;2.72;;;1.20;;
50337;SDS011;46221;51.178;5.900;2022-11-15T16:12:43;2.55;;;1.10;;
50337;SDS011;46221;51.178;5.900;2022-11-15T16:15:10;2.55;;;1.13;;
50337;SDS011;46221;51.178;5.900;2022-11-15T16:17:42;2.28;;;1.25;;
50337;SDS011;46221;51.178;5.900;2022-11-15T16:20:19;2.95;;;1.02;;
50337;SDS011;46221;51.178;5.900;2022-11-15T16:22:47;3.38;;;1.10;;
50337;SDS011;46221;51.178;5.900;2022-11-15T16:25:13;2.75;;;1.20;;
50337;SDS011;46221;51.178;5.900;2022-11-15T16:27:40;3.10;;;1.02;;
50337;SDS011;46221;51.178;5.900;2022-11-15T16:30:15;2.47;;;1.30;;
50337;SDS011;46221;51.178;5.900;2022-11-15T16:32:42;1.77;;;1.10;;
50337;SDS011;46221;51.178;5.900;2022-11-15T16:35:12;3.40;;;1.25;;
50337;SDS011;46221;51.178;5.900;2022-11-15T16:37:38;3.78;;;1.42;;
50337;SDS011;46221;51.178;5.900;2022-11-15T16:40:24;2.83;;;1.10;;
50337;SDS011;46221;51.178;5.900;2022-11-15T16:42:50;3.17;;;1.23;;
50337;SDS011;46221;51.178;5.900;2022-11-15T16:45:16;3.42;;;1.58;;
50337;SDS011;46221;51.178;5.900;2022-11-15T16:47:43;3.40;;;1.45;;
50337;SDS011;46221;51.178;5.900;2022-11-15T16:50:13;4.63;;;1.30;;
50337;SDS011;46221;51.178;5.900;2022-11-15T16:52:43;3.08;;;1.48;;
50337;SDS011;46221;51.178;5.900;2022-11-15T16:55:10;3.50;;;1.35;;
50337;SDS011;46221;51.178;5.900;2022-11-15T16:57:36;4.00;;;1.60;;
50337;SDS011;46221;51.178;5.900;2022-11-15T17:00:02;2.65;;;1.38;;
50337;SDS011;46221;51.178;5.900;2022-11-15T17:02:29;3.70;;;1.83;;
50337;SDS011;46221;51.178;5.900;2022-11-15T17:04:55;3.50;;;1.70;;